createdAt,value
2017-11-19T00:01:44.647Z,5.67
2017-11-19T00:04:12.185Z,4.83
2017-11-19T00:06:39.751Z,4.30
2017-11-19T00:09:07.271Z,5.47
2017-11-19T00:11:34.794Z,4.30
2017-11-19T00:14:03.123Z,4.00
2017-11-19T00:16:30.647Z,5.20
2017-11-19T00:18:58.174Z,4.97
2017-11-19T00:21:25.712Z,4.70
2017-11-19T00:23:53.239Z,5.07
2017-11-19T00:26:20.765Z,5.93
2017-11-19T00:28:48.308Z,5.23
2017-11-19T00:31:15.821Z,4.93
2017-11-19T00:33:43.351Z,5.13
2017-11-19T00:36:11.672Z,6.00
2017-11-19T00:38:39.191Z,5.07
2017-11-19T00:41:07.472Z,5.70
2017-11-19T00:43:35.024Z,5.07
2017-11-19T00:46:02.566Z,5.73
2017-11-19T00:48:30.074Z,5.07
2017-11-19T00:50:57.586Z,6.00
2017-11-19T00:53:25.115Z,5.40
2017-11-19T00:55:52.649Z,6.20
2017-11-19T00:58:20.169Z,5.07
2017-11-19T01:00:47.718Z,7.07
2017-11-19T01:03:15.263Z,6.83
2017-11-19T01:05:43.548Z,5.83
2017-11-19T01:08:11.068Z,6.23
2017-11-19T01:10:38.617Z,6.97
2017-11-19T01:13:06.145Z,7.30
2017-11-19T01:15:33.665Z,5.67
2017-11-19T01:18:01.205Z,6.40
2017-11-19T01:20:28.728Z,8.30
2017-11-19T01:22:56.236Z,6.70
2017-11-19T01:25:23.806Z,6.80
2017-11-19T01:27:51.351Z,5.47
2017-11-19T01:30:18.878Z,6.93
2017-11-19T01:32:47.167Z,7.30
2017-11-19T01:35:14.725Z,6.77
2017-11-19T01:37:42.245Z,7.40
2017-11-19T01:40:09.794Z,7.93
2017-11-19T01:42:37.312Z,7.40
2017-11-19T01:45:05.587Z,6.50
2017-11-19T01:47:33.151Z,7.83
2017-11-19T01:50:00.667Z,6.00
2017-11-19T01:52:28.177Z,7.27
2017-11-19T01:54:55.720Z,7.60
2017-11-19T01:57:23.998Z,8.47
2017-11-19T01:59:52.275Z,8.13
2017-11-19T02:02:31.307Z,8.67
2017-11-19T02:04:58.826Z,8.57
2017-11-19T02:07:26.364Z,8.40
2017-11-19T02:09:53.873Z,7.70
2017-11-19T02:12:21.406Z,9.17
2017-11-19T02:14:48.946Z,7.60
2017-11-19T02:17:16.490Z,9.00
2017-11-19T02:19:43.990Z,7.80
2017-11-19T02:22:11.534Z,8.90
2017-11-19T02:24:39.043Z,7.13
2017-11-19T02:27:06.550Z,7.73
2017-11-19T02:29:34.092Z,8.80
2017-11-19T02:32:01.622Z,7.90
2017-11-19T02:34:29.134Z,7.23
2017-11-19T02:39:30.611Z,6.90
2017-11-19T02:41:58.166Z,6.93
2017-11-19T02:44:25.722Z,8.63
2017-11-19T02:46:53.239Z,7.67
2017-11-19T02:49:20.809Z,7.20
2017-11-19T02:51:48.362Z,7.80
2017-11-19T02:54:15.897Z,7.70
2017-11-19T02:56:43.414Z,8.03
2017-11-19T02:59:11.731Z,7.93
2017-11-19T03:01:39.239Z,7.43
2017-11-19T03:04:06.779Z,6.37
2017-11-19T03:06:34.310Z,7.60
2017-11-19T03:09:01.834Z,7.30
2017-11-19T03:11:29.394Z,6.13
2017-11-19T03:13:57.706Z,6.37
2017-11-19T03:16:25.210Z,5.77
2017-11-19T03:18:52.761Z,6.17
2017-11-19T03:21:20.283Z,5.90
2017-11-19T03:23:47.811Z,5.80
2017-11-19T03:26:15.400Z,7.10
2017-11-19T03:28:42.969Z,7.03
2017-11-19T03:31:10.492Z,6.73
2017-11-19T03:33:38.776Z,5.13
2017-11-19T03:36:06.322Z,5.87
2017-11-19T03:38:33.851Z,5.70
2017-11-19T03:41:01.382Z,5.47
2017-11-19T03:43:28.919Z,5.90
2017-11-19T03:45:56.469Z,5.17
2017-11-19T03:48:23.986Z,5.70
2017-11-19T03:50:52.263Z,5.20
2017-11-19T03:53:19.810Z,6.50
2017-11-19T03:55:47.325Z,6.40
2017-11-19T03:58:14.843Z,4.93
2017-11-19T04:00:42.428Z,5.23
2017-11-19T04:03:09.942Z,5.30
2017-11-19T04:05:38.229Z,5.00
2017-11-19T04:08:06.555Z,4.53
2017-11-19T04:10:34.084Z,5.07
2017-11-19T04:13:01.608Z,3.93
2017-11-19T04:15:29.164Z,4.27
2017-11-19T04:17:56.684Z,4.30
2017-11-19T04:20:24.202Z,4.30
2017-11-19T04:22:52.509Z,4.00
2017-11-19T04:25:20.042Z,4.03
2017-11-19T04:27:47.599Z,3.33
2017-11-19T04:30:15.919Z,3.53
2017-11-19T04:32:43.446Z,4.03
2017-11-19T04:35:11.003Z,4.00
2017-11-19T04:37:39.323Z,3.80
2017-11-19T04:40:06.848Z,3.43
2017-11-19T04:42:34.383Z,3.30
2017-11-19T04:45:01.945Z,4.23
2017-11-19T04:47:29.464Z,3.67
2017-11-19T04:49:57.012Z,3.53
2017-11-19T04:52:24.524Z,3.57
2017-11-19T04:54:52.062Z,4.17
2017-11-19T04:57:19.610Z,3.57
2017-11-19T04:59:47.127Z,3.70
2017-11-19T05:02:14.648Z,3.97
2017-11-19T05:04:42.197Z,3.53
2017-11-19T05:07:09.719Z,3.57
2017-11-19T05:09:37.250Z,3.30
2017-11-19T05:12:05.550Z,3.50
2017-11-19T05:14:33.066Z,3.13
2017-11-19T05:17:00.598Z,3.50
2017-11-19T05:19:28.155Z,3.70
2017-11-19T05:21:55.675Z,4.40
2017-11-19T05:24:23.195Z,4.43
2017-11-19T05:26:50.737Z,4.00
2017-11-19T05:29:18.254Z,4.10
2017-11-19T05:31:45.797Z,3.93
2017-11-19T05:34:14.122Z,4.17
2017-11-19T05:36:41.643Z,3.50
2017-11-19T05:39:09.182Z,3.93
2017-11-19T05:41:36.703Z,3.90
2017-11-19T05:44:04.222Z,4.53
2017-11-19T05:46:31.767Z,4.40
2017-11-19T05:48:59.276Z,4.30
2017-11-19T05:51:26.856Z,4.50
2017-11-19T05:53:54.361Z,3.53
2017-11-19T05:56:22.630Z,3.90
2017-11-19T05:58:50.951Z,4.37
2017-11-19T06:01:18.472Z,5.00
2017-11-19T06:03:46.778Z,3.60
2017-11-19T06:06:14.311Z,4.40
2017-11-19T06:08:42.594Z,4.60
2017-11-19T06:11:10.886Z,5.30
2017-11-19T06:13:39.198Z,4.30
2017-11-19T06:16:06.745Z,5.03
2017-11-19T06:18:34.255Z,5.03
2017-11-19T06:21:01.819Z,4.50
2017-11-19T06:23:29.379Z,5.50
2017-11-19T06:25:57.682Z,5.10
2017-11-19T06:28:25.235Z,4.73
2017-11-19T06:30:53.515Z,4.77
2017-11-19T06:33:21.042Z,4.97
2017-11-19T06:35:49.179Z,5.10
2017-11-19T06:38:16.719Z,5.23
2017-11-19T06:40:44.230Z,5.10
2017-11-19T06:43:11.779Z,4.63
2017-11-19T06:45:39.303Z,4.87
2017-11-19T06:48:06.814Z,4.30
2017-11-19T06:50:34.366Z,4.80
2017-11-19T06:53:01.879Z,4.00
2017-11-19T06:55:29.394Z,4.30
2017-11-19T06:57:57.732Z,4.40
2017-11-19T07:00:25.245Z,3.43
2017-11-19T07:02:52.767Z,4.43
2017-11-19T07:05:20.382Z,3.10
2017-11-19T07:07:47.919Z,3.17
2017-11-19T07:10:15.444Z,2.90
2017-11-19T07:12:43.830Z,2.70
2017-11-19T07:15:11.333Z,2.13
2017-11-19T07:17:40.246Z,2.77
2017-11-19T07:20:07.790Z,2.60
2017-11-19T07:22:36.063Z,2.07
2017-11-19T07:25:04.330Z,1.87
2017-11-19T07:27:31.902Z,2.37
2017-11-19T07:29:59.434Z,2.30
2017-11-19T07:32:26.977Z,2.77
2017-11-19T07:34:54.501Z,2.00
2017-11-19T07:37:22.011Z,1.80
2017-11-19T07:39:49.564Z,1.70
2017-11-19T07:42:17.084Z,1.63
2017-11-19T07:44:44.622Z,2.60
2017-11-19T07:47:12.956Z,1.83
2017-11-19T07:49:40.458Z,1.80
2017-11-19T07:52:08.726Z,1.80
2017-11-19T07:54:37.037Z,2.10
2017-11-19T07:57:04.555Z,1.90
2017-11-19T07:59:32.063Z,1.83
2017-11-19T08:01:59.609Z,1.90
2017-11-19T08:04:27.114Z,1.80
2017-11-19T08:06:54.648Z,1.80
2017-11-19T08:09:22.191Z,1.83
2017-11-19T08:11:49.714Z,2.03
2017-11-19T08:14:17.219Z,1.67
2017-11-19T08:16:44.763Z,2.20
2017-11-19T08:19:12.291Z,1.87
2017-11-19T08:21:39.811Z,2.20
2017-11-19T08:24:07.344Z,2.07
2017-11-19T08:26:34.871Z,2.70
2017-11-19T08:29:02.446Z,2.40
2017-11-19T08:31:30.740Z,2.40
2017-11-19T08:33:58.242Z,2.57
2017-11-19T08:36:25.790Z,2.43
2017-11-19T08:38:53.302Z,2.70
2017-11-19T08:41:21.574Z,3.10
2017-11-19T08:43:49.887Z,3.57
2017-11-19T08:46:17.397Z,2.67
2017-11-19T08:48:44.907Z,3.30
2017-11-19T08:51:12.450Z,3.70
2017-11-19T08:53:40.878Z,3.73
2017-11-19T08:56:08.404Z,5.40
2017-11-19T08:58:35.940Z,4.10
2017-11-19T09:01:03.446Z,4.00
2017-11-19T09:03:31.723Z,3.90
2017-11-19T09:05:59.259Z,4.10
2017-11-19T09:08:26.771Z,3.83
2017-11-19T09:10:54.311Z,3.30
2017-11-19T09:13:21.831Z,4.27
2017-11-19T09:15:49.354Z,3.77
2017-11-19T09:18:16.885Z,4.13
2017-11-19T09:20:44.403Z,4.60
2017-11-19T09:23:11.941Z,3.40
2017-11-19T09:25:40.216Z,3.40
2017-11-19T09:28:07.730Z,3.60
2017-11-19T09:30:35.277Z,3.87
2017-11-19T09:33:02.809Z,3.27
2017-11-19T09:35:30.320Z,3.47
2017-11-19T09:37:57.863Z,3.53
2017-11-19T09:40:25.389Z,3.77
2017-11-19T09:42:53.671Z,3.27
2017-11-19T09:45:21.207Z,3.93
2017-11-19T09:47:48.743Z,3.67
2017-11-19T09:50:16.285Z,3.47
2017-11-19T09:52:43.813Z,2.87
2017-11-19T09:55:11.330Z,2.60
2017-11-19T09:57:38.875Z,2.63
2017-11-19T10:00:06.385Z,2.50
2017-11-19T10:02:33.906Z,2.57
2017-11-19T10:05:01.457Z,2.57
2017-11-19T10:07:28.977Z,2.40
2017-11-19T10:09:56.494Z,2.47
2017-11-19T10:12:24.046Z,1.97
2017-11-19T10:14:51.567Z,2.80
2017-11-19T10:17:19.077Z,1.93
2017-11-19T10:19:46.631Z,2.73
2017-11-19T10:22:14.163Z,1.90
2017-11-19T10:24:41.687Z,2.00
2017-11-19T10:27:09.229Z,2.50
2017-11-19T10:29:36.751Z,2.77
2017-11-19T10:32:04.264Z,2.40
2017-11-19T10:34:31.814Z,2.97
2017-11-19T10:36:59.333Z,2.43
2017-11-19T10:39:26.847Z,3.20
2017-11-19T10:41:54.400Z,2.60
2017-11-19T10:44:21.935Z,2.70
2017-11-19T10:46:49.446Z,2.30
2017-11-19T10:49:16.962Z,2.20
2017-11-19T10:51:44.512Z,2.10
2017-11-19T10:54:12.806Z,2.40
2017-11-19T10:56:41.138Z,2.57
2017-11-19T10:59:08.651Z,2.40
2017-11-19T11:01:36.928Z,1.83
2017-11-19T11:04:05.253Z,2.50
2017-11-19T11:06:32.768Z,2.33
2017-11-19T11:09:00.307Z,3.20
2017-11-19T11:11:27.851Z,2.63
2017-11-19T11:13:55.357Z,1.90
2017-11-19T11:16:22.870Z,1.80
2017-11-19T11:18:50.406Z,3.00
2017-11-19T11:21:17.946Z,2.73
2017-11-19T11:23:45.450Z,2.93
2017-11-19T11:26:12.990Z,3.80
2017-11-19T11:28:40.547Z,2.10
2017-11-19T11:31:08.065Z,2.27
2017-11-19T11:33:36.693Z,1.93
2017-11-19T11:36:04.973Z,2.50
2017-11-19T11:38:32.498Z,2.47
2017-11-19T11:41:00.024Z,2.33
2017-11-19T11:43:27.580Z,2.60
2017-11-19T11:45:55.139Z,4.20
2017-11-19T11:48:22.664Z,2.93
2017-11-19T11:50:50.214Z,2.47
2017-11-19T11:53:17.789Z,3.00
2017-11-19T11:55:46.100Z,2.90
2017-11-19T11:58:20.327Z,2.13
2017-11-19T12:00:48.629Z,2.43
2017-11-19T12:03:16.187Z,2.50
2017-11-19T12:05:43.708Z,4.07
2017-11-19T12:08:11.267Z,2.77
2017-11-19T12:10:38.778Z,1.90
2017-11-19T12:13:06.303Z,2.10
2017-11-19T12:15:33.851Z,2.00
2017-11-19T12:18:02.155Z,2.30
2017-11-19T12:20:30.434Z,1.87
2017-11-19T12:22:57.979Z,2.87
2017-11-19T12:25:25.504Z,2.13
2017-11-19T12:27:53.015Z,2.80
2017-11-19T12:30:20.574Z,2.70
2017-11-19T12:32:48.118Z,2.30
2017-11-19T12:35:15.638Z,2.50
2017-11-19T12:37:43.162Z,2.37
2017-11-19T12:40:10.710Z,3.13
2017-11-19T12:42:38.986Z,2.90
2017-11-19T12:45:06.494Z,2.63
2017-11-19T12:47:34.037Z,2.47
2017-11-19T12:50:01.559Z,2.20
2017-11-19T12:52:29.880Z,2.40
2017-11-19T12:54:57.395Z,2.93
2017-11-19T12:57:24.930Z,2.83
2017-11-19T12:59:52.518Z,2.33
2017-11-19T13:02:20.056Z,2.80
2017-11-19T13:04:47.575Z,2.20
2017-11-19T13:07:15.204Z,2.40
2017-11-19T13:09:42.994Z,2.30
2017-11-19T13:12:10.519Z,2.37
2017-11-19T13:14:38.066Z,2.17
2017-11-19T13:17:05.600Z,1.73
2017-11-19T13:19:33.131Z,2.00
2017-11-19T13:22:00.700Z,2.10
2017-11-19T13:24:28.218Z,2.00
2017-11-19T13:26:56.519Z,2.17
2017-11-19T13:29:24.061Z,2.27
2017-11-19T13:31:51.612Z,2.00
2017-11-19T13:34:19.939Z,2.27
2017-11-19T13:36:47.460Z,2.53
2017-11-19T13:39:15.733Z,2.30
2017-11-19T13:41:44.037Z,1.90
2017-11-19T13:44:11.559Z,2.47
2017-11-19T13:46:39.852Z,2.10
2017-11-19T13:49:07.402Z,1.90
2017-11-19T13:51:35.692Z,1.77
2017-11-19T13:54:03.990Z,2.53
2017-11-19T13:56:31.529Z,1.80
2017-11-19T13:58:59.811Z,1.83
2017-11-19T14:01:27.334Z,1.77
2017-11-19T14:03:54.882Z,1.60
2017-11-19T14:06:22.394Z,1.70
2017-11-19T14:08:49.926Z,2.90
2017-11-19T14:11:18.246Z,1.63
2017-11-19T14:13:45.775Z,1.70
2017-11-19T14:16:14.054Z,1.67
2017-11-19T14:18:41.607Z,1.50
2017-11-19T14:21:09.903Z,2.07
2017-11-19T14:23:38.026Z,1.10
2017-11-19T14:26:05.579Z,1.63
2017-11-19T14:28:33.871Z,1.57
2017-11-19T14:31:01.401Z,1.20
2017-11-19T14:33:28.946Z,2.50
2017-11-19T14:35:56.458Z,1.77
2017-11-19T14:38:23.999Z,1.40
2017-11-19T14:40:51.547Z,1.70
2017-11-19T14:43:19.071Z,2.57
2017-11-19T14:45:46.611Z,1.70
2017-11-19T14:48:14.187Z,1.60
2017-11-19T14:50:42.470Z,1.97
2017-11-19T14:53:09.978Z,1.77
2017-11-19T14:55:37.538Z,1.90
2017-11-19T14:58:05.058Z,2.30
2017-11-19T15:00:32.613Z,1.50
2017-11-19T15:03:00.131Z,1.57
2017-11-19T15:05:27.656Z,1.30
2017-11-19T15:07:55.208Z,1.50
2017-11-19T15:10:22.733Z,1.43
2017-11-19T15:12:51.031Z,1.80
2017-11-19T15:15:18.583Z,1.20
2017-11-19T15:17:46.110Z,2.10
2017-11-19T15:20:13.628Z,2.13
2017-11-19T15:22:41.175Z,2.40
2017-11-19T15:25:08.699Z,1.80
2017-11-19T15:27:36.997Z,1.93
2017-11-19T15:30:04.554Z,1.83
2017-11-19T15:32:32.076Z,1.90
2017-11-19T15:34:59.624Z,1.80
2017-11-19T15:37:27.138Z,1.50
2017-11-19T15:39:54.675Z,2.17
2017-11-19T15:42:22.211Z,2.40
2017-11-19T15:44:49.751Z,2.00
2017-11-19T15:47:17.266Z,2.17
2017-11-19T15:49:45.584Z,1.37
2017-11-19T15:52:13.098Z,1.73
2017-11-19T15:54:40.621Z,1.40
2017-11-19T15:57:08.160Z,1.70
2017-11-19T15:59:35.667Z,1.93
2017-11-19T16:02:03.183Z,1.80
2017-11-19T16:04:30.746Z,1.80
2017-11-19T16:06:58.263Z,1.57
2017-11-19T16:09:25.771Z,1.80
2017-11-19T16:11:54.095Z,1.70
2017-11-19T16:14:22.511Z,1.93
2017-11-19T16:16:50.031Z,1.60
2017-11-19T16:19:18.347Z,1.80
2017-11-19T16:21:45.872Z,2.00
2017-11-19T16:24:14.149Z,2.23
2017-11-19T16:26:41.699Z,2.17
2017-11-19T16:29:09.227Z,2.00
2017-11-19T16:31:36.738Z,1.83
2017-11-19T16:34:05.042Z,1.50
2017-11-19T16:36:32.551Z,2.13
2017-11-19T16:39:00.098Z,1.67
2017-11-19T16:41:27.628Z,4.30
2017-11-19T16:43:55.191Z,1.40
2017-11-19T16:46:22.740Z,2.43
2017-11-19T16:48:50.256Z,1.57
2017-11-19T16:51:17.779Z,2.33
2017-11-19T16:53:45.334Z,2.60
2017-11-19T16:56:12.867Z,2.00
2017-11-19T16:58:40.392Z,4.83
2017-11-19T17:01:07.939Z,2.57
2017-11-19T17:03:35.489Z,2.07
2017-11-19T17:06:03.040Z,3.40
2017-11-19T17:08:30.578Z,1.90
2017-11-19T17:10:58.091Z,1.50
2017-11-19T17:13:25.628Z,2.27
2017-11-19T17:15:53.180Z,1.70
2017-11-19T17:18:20.715Z,2.00
2017-11-19T17:20:48.223Z,2.00
2017-11-19T17:23:15.770Z,2.30
2017-11-19T17:25:43.366Z,2.57
2017-11-19T17:28:10.885Z,2.20
2017-11-19T17:30:38.443Z,2.80
2017-11-19T17:33:05.977Z,2.40
2017-11-19T17:35:39.207Z,2.30
2017-11-19T17:38:06.719Z,1.83
2017-11-19T17:40:34.246Z,2.23
2017-11-19T17:43:01.799Z,1.87
2017-11-19T17:45:29.342Z,2.10
2017-11-19T17:47:56.849Z,3.00
2017-11-19T17:50:25.118Z,3.13
2017-11-19T17:52:53.427Z,2.47
2017-11-19T17:55:20.995Z,1.87
2017-11-19T17:57:48.528Z,2.87
2017-11-19T18:00:16.074Z,2.20
2017-11-19T18:02:43.590Z,2.70
2017-11-19T18:05:11.114Z,2.87
2017-11-19T18:07:38.662Z,3.90
2017-11-19T18:10:06.174Z,2.30
2017-11-19T18:12:33.689Z,2.80
2017-11-19T18:15:01.332Z,2.60
2017-11-19T18:17:28.909Z,2.50
2017-11-19T18:19:56.479Z,3.30
2017-11-19T18:22:24.042Z,2.57
2017-11-19T18:24:51.566Z,2.90
2017-11-19T18:27:19.075Z,4.10
2017-11-19T18:29:46.619Z,2.63
2017-11-19T18:32:14.215Z,2.27
2017-11-19T18:34:41.826Z,2.67
2017-11-19T18:37:09.375Z,3.60
2017-11-19T18:39:37.804Z,2.70
2017-11-19T18:42:05.482Z,3.77
2017-11-19T18:44:33.083Z,2.17
2017-11-19T18:47:01.018Z,3.10
2017-11-19T18:49:29.431Z,2.30
2017-11-19T18:51:57.282Z,2.57
2017-11-19T18:54:24.920Z,2.20
2017-11-19T18:56:53.349Z,2.70
2017-11-19T18:59:21.354Z,2.37
2017-11-19T19:01:49.227Z,3.27
2017-11-19T19:04:16.863Z,3.23
2017-11-19T19:06:44.397Z,1.97
2017-11-19T19:09:12.721Z,2.93
2017-11-19T19:11:40.252Z,2.70
2017-11-19T19:14:07.790Z,2.90
2017-11-19T19:16:36.132Z,2.83
2017-11-19T19:19:03.648Z,2.70
2017-11-19T19:21:31.200Z,3.93
2017-11-19T19:23:59.539Z,2.30
2017-11-19T19:26:27.114Z,4.23
2017-11-19T19:28:54.728Z,2.97
2017-11-19T19:31:22.341Z,2.40
2017-11-19T19:33:49.887Z,3.63
2017-11-19T19:36:17.420Z,2.70
2017-11-19T19:38:45.065Z,2.40
2017-11-19T19:41:12.792Z,3.40
2017-11-19T19:43:40.587Z,3.13
2017-11-19T19:46:08.387Z,2.80
2017-11-19T19:48:36.372Z,2.77
2017-11-19T19:51:04.289Z,3.60
2017-11-19T19:53:32.129Z,2.80
2017-11-19T19:56:00.921Z,2.77
2017-11-19T19:58:28.808Z,2.83
2017-11-19T20:00:56.759Z,2.97
2017-11-19T20:03:24.686Z,3.83
2017-11-19T20:05:52.713Z,3.80
2017-11-19T20:08:20.724Z,3.23
2017-11-19T20:10:48.734Z,3.73
2017-11-19T20:13:16.998Z,3.50
2017-11-19T20:15:45.255Z,3.30
2017-11-19T20:18:13.324Z,4.13
2017-11-19T20:20:41.460Z,3.67
2017-11-19T20:23:09.743Z,3.37
2017-11-19T20:25:37.659Z,3.97
2017-11-19T20:28:06.591Z,3.87
2017-11-19T20:30:34.530Z,3.60
2017-11-19T20:33:02.359Z,4.60
2017-11-19T20:35:30.385Z,3.90
2017-11-19T20:37:58.071Z,4.20
2017-11-19T20:40:25.696Z,5.33
2017-11-19T20:42:53.300Z,4.60
2017-11-19T20:45:21.017Z,3.20
2017-11-19T20:47:48.876Z,3.80
2017-11-19T20:50:16.460Z,3.73
2017-11-19T20:52:44.130Z,3.63
2017-11-19T20:55:12.521Z,3.67
2017-11-19T20:57:40.059Z,3.80
2017-11-19T21:00:07.597Z,3.30
2017-11-19T21:02:35.166Z,3.83
2017-11-19T21:05:02.723Z,3.73
2017-11-19T21:07:30.366Z,4.93
2017-11-19T21:09:57.911Z,3.50
2017-11-19T21:12:25.436Z,3.60
2017-11-19T21:14:52.987Z,3.23
2017-11-19T21:17:20.521Z,3.77
2017-11-19T21:19:48.035Z,3.47
2017-11-19T21:22:15.541Z,3.60
2017-11-19T21:24:43.117Z,3.83
2017-11-19T21:27:10.638Z,5.70
2017-11-19T21:29:38.154Z,3.73
2017-11-19T21:32:05.709Z,3.57
2017-11-19T21:34:34.002Z,2.73
2017-11-19T21:37:02.294Z,3.10
2017-11-19T21:39:29.846Z,3.33
2017-11-19T21:41:57.363Z,3.10
2017-11-19T21:44:25.639Z,3.27
2017-11-19T21:46:53.184Z,2.90
2017-11-19T21:49:20.701Z,3.70
2017-11-19T21:51:48.229Z,2.73
2017-11-19T21:54:15.775Z,3.70
2017-11-19T21:56:43.327Z,3.43
2017-11-19T21:59:10.876Z,2.73
2017-11-19T22:01:38.395Z,2.57
2017-11-19T22:04:05.918Z,3.90
2017-11-19T22:06:33.473Z,3.07
2017-11-19T22:09:00.997Z,4.00
2017-11-19T22:11:28.506Z,3.30
2017-11-19T22:13:56.040Z,3.27
2017-11-19T22:16:23.583Z,3.93
2017-11-19T22:18:51.094Z,2.97
2017-11-19T22:21:18.628Z,3.67
2017-11-19T22:23:46.172Z,3.80
2017-11-19T22:26:13.694Z,5.13
2017-11-19T22:28:41.974Z,4.17
2017-11-19T22:31:10.295Z,2.80
2017-11-19T22:33:37.875Z,3.13
2017-11-19T22:36:05.416Z,3.20
2017-11-19T22:38:32.973Z,3.43
2017-11-19T22:41:00.509Z,2.83
2017-11-19T22:43:28.047Z,3.60
2017-11-19T22:45:56.354Z,3.07
2017-11-19T22:48:23.881Z,3.47
2017-11-19T22:50:52.191Z,3.10
2017-11-19T22:53:19.710Z,3.87
2017-11-19T22:55:47.990Z,3.17
2017-11-19T22:58:16.302Z,3.10
2017-11-19T23:00:43.811Z,3.90
2017-11-19T23:03:11.344Z,3.47
2017-11-19T23:05:38.881Z,3.63
2017-11-19T23:08:06.397Z,3.73
2017-11-19T23:10:33.928Z,3.77
2017-11-19T23:13:01.484Z,3.77
2017-11-19T23:15:29.014Z,3.10
2017-11-19T23:17:56.545Z,3.60
2017-11-19T23:20:24.882Z,3.87
2017-11-19T23:22:52.439Z,2.87
2017-11-19T23:25:19.984Z,3.40
2017-11-19T23:27:47.543Z,4.13
2017-11-19T23:30:15.082Z,3.20
2017-11-19T23:32:42.589Z,4.10
2017-11-19T23:35:10.138Z,4.37
2017-11-19T23:37:37.705Z,4.17
2017-11-19T23:40:05.260Z,3.87
2017-11-19T23:42:32.797Z,3.00
2017-11-19T23:45:00.322Z,3.23
2017-11-19T23:47:27.873Z,4.20
2017-11-19T23:49:55.390Z,3.50
2017-11-19T23:52:22.897Z,3.60
2017-11-19T23:54:50.435Z,3.60
2017-11-19T23:57:17.951Z,3.83
2017-11-19T23:59:45.477Z,3.50
